createdAt,value
2023-02-13T00:00:10.274Z,12.87
2023-02-13T00:02:57.718Z,12.63
2023-02-13T00:05:45.403Z,11.90
2023-02-13T00:08:32.770Z,12.87
2023-02-13T00:11:20.634Z,11.73
2023-02-13T00:14:08.120Z,12.33
2023-02-13T00:16:55.477Z,12.10
2023-02-13T00:19:42.912Z,12.03
2023-02-13T00:22:30.274Z,11.47
2023-02-13T00:25:17.690Z,12.07
2023-02-13T00:28:05.112Z,11.30
2023-02-13T00:30:52.644Z,11.87
2023-02-13T00:33:40.181Z,11.53
2023-02-13T00:36:27.544Z,11.37
2023-02-13T00:39:15.024Z,11.87
2023-02-13T00:42:02.347Z,12.10
2023-02-13T00:44:49.769Z,12.30
2023-02-13T00:47:37.194Z,12.03
2023-02-13T00:50:24.596Z,12.77
2023-02-13T00:53:12.041Z,13.27
2023-02-13T00:55:59.446Z,12.53
2023-02-13T00:58:46.888Z,11.97
2023-02-13T01:01:34.370Z,12.37
2023-02-13T01:04:21.788Z,12.77
2023-02-13T01:07:09.186Z,13.23
2023-02-13T01:09:56.577Z,12.20
2023-02-13T01:12:43.943Z,12.90
2023-02-13T01:15:32.396Z,12.53
2023-02-13T01:18:20.706Z,12.97
2023-02-13T01:21:08.810Z,13.77
2023-02-13T01:23:56.204Z,13.10
2023-02-13T01:26:44.017Z,13.90
2023-02-13T01:29:31.376Z,14.43
2023-02-13T01:32:18.816Z,14.63
2023-02-13T01:35:06.719Z,15.30
2023-02-13T01:37:54.068Z,14.53
2023-02-13T01:40:59.751Z,14.20
2023-02-13T01:43:54.953Z,15.27
2023-02-13T01:46:43.774Z,15.57
2023-02-13T01:49:31.291Z,15.03
2023-02-13T01:52:18.943Z,15.90
2023-02-13T01:55:07.049Z,14.33
2023-02-13T01:57:57.676Z,15.30
2023-02-13T02:00:49.655Z,15.50
2023-02-13T02:03:46.807Z,14.63
2023-02-13T02:06:36.313Z,16.13
2023-02-13T02:09:24.924Z,14.73
2023-02-13T02:12:12.267Z,15.47
2023-02-13T02:15:00.912Z,15.13
2023-02-13T02:17:48.383Z,16.27
2023-02-13T02:20:45.862Z,15.73
2023-02-13T02:23:45.580Z,15.17
2023-02-13T02:26:38.827Z,14.43
2023-02-13T02:29:43.244Z,14.30
2023-02-13T02:32:49.080Z,15.03
2023-02-13T02:35:45.196Z,15.40
2023-02-13T02:38:46.060Z,15.00
2023-02-13T02:41:42.603Z,14.70
2023-02-13T02:44:39.307Z,16.00
2023-02-13T02:47:49.277Z,14.67
2023-02-13T02:50:43.872Z,15.53
2023-02-13T02:53:31.296Z,14.40
2023-02-13T02:56:29.446Z,14.37
2023-02-13T02:59:37.511Z,15.30
2023-02-13T03:02:44.532Z,15.77
2023-02-13T03:05:53.939Z,16.60
2023-02-13T03:09:01.693Z,15.93
2023-02-13T03:12:10.235Z,14.80
2023-02-13T03:14:57.780Z,16.33
2023-02-13T03:18:03.994Z,15.53
2023-02-13T03:21:21.542Z,16.43
2023-02-13T03:24:14.396Z,15.03
2023-02-13T03:27:40.494Z,15.10
2023-02-13T03:30:46.436Z,15.10
2023-02-13T03:33:39.895Z,15.00
2023-02-13T03:37:04.564Z,15.33
2023-02-13T03:39:59.294Z,15.30
2023-02-13T03:42:49.455Z,14.47
2023-02-13T03:45:53.950Z,13.90
2023-02-13T03:49:01.135Z,14.40
2023-02-13T03:51:57.289Z,16.00
2023-02-13T03:55:14.664Z,14.90
2023-02-13T03:58:46.637Z,13.90
2023-02-13T04:01:35.556Z,14.87
2023-02-13T04:04:23.144Z,15.07
2023-02-13T04:07:12.622Z,14.83
2023-02-13T04:10:02.582Z,15.03
2023-02-13T04:13:08.312Z,15.60
2023-02-13T04:16:12.467Z,14.10
2023-02-13T04:19:01.807Z,13.37
2023-02-13T04:21:50.664Z,14.17
2023-02-13T04:24:38.084Z,14.17
2023-02-13T04:27:29.044Z,14.80
2023-02-13T04:30:16.461Z,14.20
2023-02-13T04:33:03.860Z,14.00
2023-02-13T04:35:51.300Z,13.53
2023-02-13T04:38:38.688Z,13.30
2023-02-13T04:41:26.057Z,13.30
2023-02-13T04:44:13.435Z,13.63
2023-02-13T04:47:00.772Z,13.43
2023-02-13T04:49:48.109Z,12.73
2023-02-13T04:52:35.501Z,12.33
2023-02-13T04:55:23.847Z,12.67
2023-02-13T04:58:11.220Z,11.83
2023-02-13T05:00:59.169Z,12.10
2023-02-13T05:03:46.855Z,11.87
2023-02-13T05:06:34.236Z,11.97
2023-02-13T05:09:21.782Z,11.97
2023-02-13T05:12:09.128Z,10.63
2023-02-13T05:14:56.735Z,10.50
2023-02-13T05:17:44.493Z,11.23
2023-02-13T05:20:31.857Z,10.67
2023-02-13T05:23:25.437Z,10.93
2023-02-13T05:26:12.802Z,11.73
2023-02-13T05:29:18.612Z,11.17
2023-02-13T05:32:06.192Z,10.77
2023-02-13T05:34:53.626Z,9.23
2023-02-13T05:37:40.998Z,10.63
2023-02-13T05:40:28.390Z,10.73
2023-02-13T05:43:15.819Z,9.93
2023-02-13T05:46:04.263Z,10.00
2023-02-13T05:48:52.329Z,10.03
2023-02-13T05:51:39.747Z,10.03
2023-02-13T05:54:27.163Z,9.97
2023-02-13T05:57:14.512Z,9.57
2023-02-13T06:00:02.069Z,11.90
2023-02-13T06:02:49.501Z,10.10
2023-02-13T06:05:36.917Z,9.80
2023-02-13T06:08:24.376Z,9.27
2023-02-13T06:11:11.763Z,10.03
2023-02-13T06:13:59.324Z,10.63
2023-02-13T06:16:46.685Z,9.90
2023-02-13T06:19:34.103Z,9.90
2023-02-13T06:22:21.447Z,10.23
2023-02-13T06:25:08.802Z,9.77
2023-02-13T06:27:56.201Z,9.77
2023-02-13T06:30:43.638Z,9.87
2023-02-13T06:33:31.039Z,10.13
2023-02-13T06:36:18.405Z,10.57
2023-02-13T06:39:05.770Z,11.73
2023-02-13T06:41:53.195Z,11.87
2023-02-13T06:44:40.815Z,12.90
2023-02-13T06:47:28.306Z,12.40
2023-02-13T06:50:16.702Z,11.57
2023-02-13T06:53:04.136Z,11.23
2023-02-13T06:55:55.078Z,11.90
2023-02-13T06:58:42.501Z,11.90
2023-02-13T07:01:29.883Z,12.60
2023-02-13T07:04:17.253Z,12.20
2023-02-13T07:07:04.596Z,12.30
2023-02-13T07:09:51.995Z,12.30
2023-02-13T07:12:39.401Z,11.77
2023-02-13T07:15:26.768Z,12.37
2023-02-13T07:18:14.128Z,11.60
2023-02-13T07:21:01.791Z,12.33
2023-02-13T07:23:49.150Z,11.50
2023-02-13T07:26:36.637Z,12.37
2023-02-13T07:29:23.968Z,11.83
2023-02-13T07:32:12.021Z,13.63
2023-02-13T07:35:02.467Z,12.57
2023-02-13T07:37:50.214Z,12.20
2023-02-13T07:40:37.564Z,12.93
2023-02-13T07:43:25.106Z,13.07
2023-02-13T07:46:12.555Z,12.40
2023-02-13T07:49:00.060Z,11.57
2023-02-13T07:51:50.034Z,12.77
2023-02-13T07:54:37.622Z,13.63
2023-02-13T07:57:25.043Z,15.20
2023-02-13T08:00:12.678Z,13.53
2023-02-13T08:03:00.744Z,14.17
2023-02-13T08:05:49.412Z,15.03
2023-02-13T08:08:39.679Z,13.70
2023-02-13T08:11:52.043Z,14.47
2023-02-13T08:14:39.412Z,15.07
2023-02-13T08:17:26.854Z,14.47
2023-02-13T08:20:14.307Z,14.60
2023-02-13T08:23:09.128Z,15.80
2023-02-13T08:25:59.831Z,14.87
2023-02-13T08:28:47.413Z,14.70
2023-02-13T08:31:35.111Z,15.13
2023-02-13T08:34:22.601Z,15.10
2023-02-13T08:37:09.992Z,15.03
2023-02-13T08:39:57.479Z,16.20
2023-02-13T08:42:44.900Z,13.83
2023-02-13T08:45:33.040Z,13.93
2023-02-13T08:48:22.616Z,14.30
2023-02-13T08:51:14.261Z,14.73
2023-02-13T08:54:01.642Z,13.50
2023-02-13T08:56:49.090Z,14.40
2023-02-13T08:59:36.492Z,14.33
2023-02-13T09:02:23.900Z,13.83
2023-02-13T09:05:11.311Z,14.10
2023-02-13T09:08:05.420Z,14.07
2023-02-13T09:10:56.915Z,13.83
2023-02-13T09:13:44.300Z,14.10
2023-02-13T09:16:32.399Z,14.33
2023-02-13T09:19:19.829Z,13.47
2023-02-13T09:22:07.226Z,13.10
2023-02-13T09:24:54.588Z,13.03
2023-02-13T09:27:44.424Z,13.47
2023-02-13T09:30:32.053Z,12.80
2023-02-13T09:33:19.456Z,13.47
2023-02-13T09:36:06.879Z,12.83
2023-02-13T09:38:55.537Z,13.07
2023-02-13T09:41:44.101Z,13.00
2023-02-13T09:44:43.138Z,13.23
2023-02-13T09:47:33.589Z,14.10
2023-02-13T09:50:30.302Z,13.13
2023-02-13T09:53:24.525Z,12.40
2023-02-13T09:56:16.852Z,12.37
2023-02-13T09:59:10.872Z,12.97
2023-02-13T10:01:59.867Z,13.30
2023-02-13T10:04:51.136Z,12.83
2023-02-13T10:07:44.845Z,13.67
2023-02-13T10:10:32.258Z,13.23
2023-02-13T10:13:38.531Z,12.67
2023-02-13T10:16:44.386Z,14.47
2023-02-13T10:19:38.773Z,12.53
2023-02-13T10:22:49.688Z,12.67
2023-02-13T10:25:47.093Z,13.00
2023-02-13T10:29:15.293Z,14.10
2023-02-13T10:32:05.728Z,13.73
2023-02-13T10:34:54.349Z,13.03
2023-02-13T10:37:41.782Z,12.83
2023-02-13T10:40:33.402Z,13.17
2023-02-13T10:43:21.463Z,12.60
2023-02-13T10:46:41.475Z,11.90
2023-02-13T10:49:47.533Z,12.57
2023-02-13T10:52:53.786Z,12.37
2023-02-13T10:55:53.130Z,12.30
2023-02-13T10:58:41.175Z,12.43
2023-02-13T11:01:36.524Z,12.60
2023-02-13T11:04:24.188Z,12.30
2023-02-13T11:07:16.872Z,12.63
2023-02-13T11:10:06.797Z,12.30
2023-02-13T11:12:54.558Z,12.90
2023-02-13T11:15:41.943Z,13.40
2023-02-13T11:18:30.529Z,12.70
2023-02-13T11:21:21.336Z,13.37
2023-02-13T11:24:17.867Z,12.93
2023-02-13T11:27:13.397Z,12.47
2023-02-13T11:30:02.345Z,12.90
2023-02-13T11:33:03.832Z,12.97
2023-02-13T11:36:04.210Z,12.70
2023-02-13T11:38:58.516Z,13.10
2023-02-13T11:41:55.676Z,12.80
2023-02-13T11:44:43.922Z,13.53
2023-02-13T11:47:33.319Z,12.43
2023-02-13T11:50:23.676Z,12.07
2023-02-13T11:53:20.513Z,13.23
2023-02-13T11:56:12.449Z,13.57
2023-02-13T11:59:03.843Z,12.53
2023-02-13T12:02:03.651Z,12.83
2023-02-13T12:04:52.431Z,12.87
2023-02-13T12:07:40.228Z,12.53
2023-02-13T12:10:34.027Z,12.73
2023-02-13T12:13:30.768Z,13.13
2023-02-13T12:16:39.415Z,13.00
2023-02-13T12:19:39.993Z,12.13
2023-02-13T12:22:30.629Z,13.63
2023-02-13T12:25:26.925Z,12.73
2023-02-13T12:28:16.247Z,14.27
2023-02-13T12:31:09.795Z,14.97
2023-02-13T12:34:23.841Z,13.53
2023-02-13T12:37:43.688Z,14.00
2023-02-13T12:40:31.139Z,12.97
2023-02-13T12:43:18.569Z,13.47
2023-02-13T12:46:17.663Z,14.20
2023-02-13T12:49:09.194Z,12.17
2023-02-13T12:52:15.333Z,13.67
2023-02-13T12:55:21.428Z,13.80
2023-02-13T12:58:14.473Z,14.33
2023-02-13T13:01:17.950Z,13.80
2023-02-13T13:04:05.573Z,13.13
2023-02-13T13:07:01.646Z,13.57
2023-02-13T13:10:12.544Z,13.20
2023-02-13T13:13:05.667Z,13.57
2023-02-13T13:15:54.812Z,13.97
2023-02-13T13:19:00.530Z,14.53
2023-02-13T13:21:50.271Z,16.07
2023-02-13T13:24:45.962Z,13.93
2023-02-13T13:27:36.958Z,13.50
2023-02-13T13:30:42.646Z,15.23
2023-02-13T13:33:30.161Z,15.70
2023-02-13T13:36:24.946Z,14.57
2023-02-13T13:39:32.571Z,14.47
2023-02-13T13:42:29.162Z,14.23
2023-02-13T13:45:19.324Z,14.83
2023-02-13T13:48:06.692Z,15.27
2023-02-13T13:50:54.509Z,14.77
2023-02-13T13:54:17.387Z,14.97
2023-02-13T13:57:05.655Z,16.80
2023-02-13T13:59:57.588Z,16.33
2023-02-13T14:02:46.698Z,16.87
2023-02-13T14:05:35.326Z,16.03
2023-02-13T14:08:37.856Z,17.20
2023-02-13T14:11:35.676Z,14.57
2023-02-13T14:18:15.626Z,16.17
2023-02-13T14:21:51.237Z,17.53
2023-02-13T14:24:39.844Z,17.33
2023-02-13T14:27:38.324Z,16.63
2023-02-13T14:30:28.551Z,17.77
2023-02-13T14:33:24.925Z,17.43
2023-02-13T14:36:21.666Z,17.60
2023-02-13T14:39:22.858Z,18.80
2023-02-13T14:42:30.482Z,17.57
2023-02-13T14:45:23.257Z,18.37
2023-02-13T14:48:14.194Z,18.40
2023-02-13T14:51:02.361Z,17.60
2023-02-13T14:53:54.762Z,18.93
2023-02-13T14:56:42.220Z,17.57
2023-02-13T14:59:32.686Z,17.20
2023-02-13T15:02:24.394Z,18.53
2023-02-13T15:05:16.010Z,18.17
2023-02-13T15:08:03.339Z,17.37
2023-02-13T15:10:52.882Z,16.90
2023-02-13T15:13:40.955Z,18.17
2023-02-13T15:16:28.369Z,18.57
2023-02-13T15:19:17.038Z,16.43
2023-02-13T15:22:05.547Z,18.20
2023-02-13T15:24:53.042Z,19.10
2023-02-13T15:27:44.400Z,16.97
2023-02-13T15:30:36.311Z,18.60
2023-02-13T15:33:24.845Z,18.17
2023-02-13T15:36:16.773Z,20.97
2023-02-13T15:39:09.484Z,18.43
2023-02-13T15:41:59.158Z,21.67
2023-02-13T15:44:48.559Z,21.93
2023-02-13T15:47:36.443Z,25.07
2023-02-13T15:50:35.831Z,22.60
2023-02-13T15:53:23.234Z,21.10
2023-02-13T15:56:14.645Z,19.03
2023-02-13T15:59:02.357Z,22.13
2023-02-13T16:01:51.562Z,18.07
2023-02-13T16:04:40.840Z,17.07
2023-02-13T16:07:28.217Z,16.73
2023-02-13T16:10:18.407Z,18.67
2023-02-13T16:13:07.069Z,17.67
2023-02-13T16:15:54.544Z,29.70
2023-02-13T16:18:41.964Z,22.03
2023-02-13T16:21:31.327Z,18.73
2023-02-13T16:24:19.856Z,16.97
2023-02-13T16:27:13.676Z,18.13
2023-02-13T16:30:02.206Z,18.23
2023-02-13T16:32:49.656Z,18.37
2023-02-13T16:35:42.065Z,19.07
2023-02-13T16:38:38.822Z,17.63
2023-02-13T16:41:26.200Z,18.03
2023-02-13T16:44:24.060Z,17.30
2023-02-13T16:47:20.417Z,17.90
2023-02-13T16:50:14.471Z,17.77
2023-02-13T16:53:05.081Z,16.80
2023-02-13T16:56:00.581Z,17.57
2023-02-13T16:58:48.002Z,18.40
2023-02-13T17:01:38.129Z,18.43
2023-02-13T17:04:25.916Z,17.57
2023-02-13T17:07:33.620Z,17.87
2023-02-13T17:10:21.166Z,17.03
2023-02-13T17:13:11.476Z,18.87
2023-02-13T17:16:00.006Z,17.63
2023-02-13T17:18:47.397Z,17.57
2023-02-13T17:21:35.029Z,18.33
2023-02-13T17:24:22.396Z,16.80
2023-02-13T17:27:10.535Z,17.87
2023-02-13T17:29:58.021Z,17.77
2023-02-13T17:32:47.004Z,17.83
2023-02-13T17:35:35.111Z,16.20
2023-02-13T17:38:22.558Z,16.77
2023-02-13T17:41:15.020Z,16.97
2023-02-13T17:44:02.371Z,17.13
2023-02-13T17:46:49.728Z,17.33
2023-02-13T17:49:37.083Z,17.23
2023-02-13T17:52:29.206Z,15.30
2023-02-13T17:55:21.273Z,16.27
2023-02-13T17:58:08.729Z,15.83
2023-02-13T18:00:56.380Z,15.87
2023-02-13T18:03:43.846Z,15.63
2023-02-13T18:06:31.286Z,15.67
2023-02-13T18:09:18.710Z,15.63
2023-02-13T18:12:07.253Z,15.87
2023-02-13T18:14:54.651Z,16.47
2023-02-13T18:17:42.150Z,15.13
2023-02-13T18:20:29.848Z,15.67
2023-02-13T18:23:17.473Z,15.57
2023-02-13T18:26:09.346Z,15.43
2023-02-13T18:28:56.720Z,18.00
2023-02-13T18:31:44.237Z,17.33
2023-02-13T18:34:32.155Z,18.33
2023-02-13T18:37:19.595Z,17.73
2023-02-13T18:40:10.482Z,17.13
2023-02-13T18:42:57.935Z,15.50
2023-02-13T18:45:45.876Z,16.03
2023-02-13T18:48:33.271Z,17.47
2023-02-13T18:51:20.633Z,17.10
2023-02-13T18:54:08.017Z,16.73
2023-02-13T18:56:55.428Z,16.97
2023-02-13T18:59:42.781Z,18.30
2023-02-13T19:02:32.231Z,16.73
2023-02-13T19:05:19.844Z,18.30
2023-02-13T19:08:07.180Z,19.10
2023-02-13T19:10:59.385Z,18.17
2023-02-13T19:13:47.345Z,18.17
2023-02-13T19:16:35.514Z,18.27
2023-02-13T19:19:22.933Z,19.13
2023-02-13T19:22:10.295Z,16.87
2023-02-13T19:24:57.628Z,17.87
2023-02-13T19:27:44.968Z,17.33
2023-02-13T19:30:32.466Z,16.80
2023-02-13T19:33:20.101Z,17.13
2023-02-13T19:36:09.517Z,16.00
2023-02-13T19:38:57.927Z,16.57
2023-02-13T19:41:45.273Z,15.80
2023-02-13T19:44:32.627Z,15.20
2023-02-13T19:47:19.998Z,16.97
2023-02-13T19:50:07.758Z,16.53
2023-02-13T19:52:55.135Z,16.60
2023-02-13T19:55:42.463Z,16.53
2023-02-13T19:58:29.853Z,15.63
2023-02-13T20:01:18.848Z,14.57
2023-02-13T20:04:06.222Z,16.13
2023-02-13T20:06:58.140Z,16.00
2023-02-13T20:09:45.619Z,16.03
2023-02-13T20:12:32.982Z,14.43
2023-02-13T20:15:20.953Z,16.50
2023-02-13T20:18:08.358Z,16.47
2023-02-13T20:20:55.698Z,14.77
2023-02-13T20:23:43.666Z,14.70
2023-02-13T20:26:31.481Z,14.77
2023-02-13T20:29:18.935Z,14.73
2023-02-13T20:32:06.464Z,14.53
2023-02-13T20:34:59.927Z,14.53
2023-02-13T20:37:47.536Z,13.77
2023-02-13T20:40:34.907Z,14.00
2023-02-13T20:43:22.232Z,14.33
2023-02-13T20:46:10.176Z,14.07
2023-02-13T20:48:57.713Z,13.87
2023-02-13T20:51:45.537Z,13.50
2023-02-13T20:54:33.163Z,12.97
2023-02-13T20:57:20.661Z,14.27
2023-02-13T21:00:09.430Z,14.07
2023-02-13T21:02:56.860Z,15.33
2023-02-13T21:05:44.281Z,14.17
2023-02-13T21:08:31.638Z,13.43
2023-02-13T21:11:19.673Z,14.93
2023-02-13T21:14:07.072Z,15.77
2023-02-13T21:16:54.552Z,13.70
2023-02-13T21:19:41.988Z,15.17
2023-02-13T21:22:30.418Z,14.20
2023-02-13T21:25:18.676Z,14.17
2023-02-13T21:28:06.101Z,13.53
2023-02-13T21:30:53.547Z,15.03
2023-02-13T21:33:40.979Z,14.50
2023-02-13T21:36:28.428Z,15.70
2023-02-13T21:39:16.093Z,16.50
2023-02-13T21:42:04.440Z,15.73
2023-02-13T21:44:51.821Z,15.87
2023-02-13T21:47:39.172Z,13.83
2023-02-13T21:50:26.569Z,16.07
2023-02-13T21:53:13.952Z,14.50
2023-02-13T21:56:04.946Z,15.07
2023-02-13T21:58:52.783Z,13.63
2023-02-13T22:01:40.214Z,15.37
2023-02-13T22:04:27.567Z,13.03
2023-02-13T22:07:14.931Z,15.37
2023-02-13T22:10:02.305Z,13.87
2023-02-13T22:12:53.435Z,14.30
2023-02-13T22:15:40.778Z,14.40
2023-02-13T22:18:30.668Z,14.20
2023-02-13T22:21:18.940Z,13.07
2023-02-13T22:24:06.618Z,13.07
2023-02-13T22:26:53.965Z,15.43
2023-02-13T22:29:41.364Z,14.43
2023-02-13T22:32:28.770Z,13.50
2023-02-13T22:35:16.160Z,13.77
2023-02-13T22:38:03.596Z,14.53
2023-02-13T22:40:50.994Z,13.57
2023-02-13T22:43:38.861Z,13.07
2023-02-13T22:46:28.210Z,12.63
2023-02-13T22:49:15.627Z,13.87
2023-02-13T22:52:02.980Z,13.73
2023-02-13T22:54:50.388Z,12.70
2023-02-13T22:57:37.837Z,14.27
2023-02-13T23:00:25.160Z,15.20
2023-02-13T23:03:12.591Z,14.40
2023-02-13T23:05:59.932Z,12.63
2023-02-13T23:08:52.143Z,14.17
2023-02-13T23:11:58.329Z,14.20
2023-02-13T23:14:45.722Z,12.27
2023-02-13T23:17:51.812Z,13.43
2023-02-13T23:20:40.156Z,14.27
2023-02-13T23:23:27.670Z,13.13
2023-02-13T23:26:15.467Z,13.27
2023-02-13T23:29:02.861Z,13.50
2023-02-13T23:31:50.277Z,14.00
2023-02-13T23:34:37.942Z,13.33
2023-02-13T23:37:25.319Z,13.30
2023-02-13T23:40:13.565Z,12.43
2023-02-13T23:43:00.946Z,11.03
2023-02-13T23:45:48.593Z,11.50
2023-02-13T23:48:35.965Z,11.60
2023-02-13T23:51:25.476Z,12.17
2023-02-13T23:54:20.192Z,12.70
2023-02-13T23:57:07.581Z,12.87
2023-02-13T23:59:55.002Z,12.53
